createdAt,value
2018-08-22T00:00:49.154Z,55.30
2018-08-22T00:03:17.487Z,55.68
2018-08-22T00:05:45.815Z,55.43
2018-08-22T00:08:14.228Z,55.53
2018-08-22T00:10:42.543Z,56.23
2018-08-22T00:13:10.880Z,55.05
2018-08-22T00:15:39.232Z,55.29
2018-08-22T00:18:07.563Z,56.04
2018-08-22T00:20:35.905Z,55.37
2018-08-22T00:23:04.420Z,56.12
2018-08-22T00:25:32.746Z,55.49
2018-08-22T00:28:01.074Z,56.78
2018-08-22T00:30:29.418Z,56.89
2018-08-22T00:32:57.779Z,56.06
2018-08-22T00:35:26.155Z,56.34
2018-08-22T00:37:54.510Z,56.75
2018-08-22T00:40:22.844Z,56.30
2018-08-22T00:42:51.194Z,57.09
2018-08-22T00:45:19.538Z,56.57
2018-08-22T00:47:47.889Z,56.48
2018-08-22T00:50:16.229Z,56.80
2018-08-22T00:52:45.836Z,56.04
2018-08-22T00:55:14.187Z,56.37
2018-08-22T00:57:42.544Z,56.33
2018-08-22T01:00:11.074Z,57.09
2018-08-22T01:02:39.427Z,56.69
2018-08-22T01:05:07.766Z,57.51
2018-08-22T01:07:36.143Z,56.38
2018-08-22T01:10:04.974Z,56.90
2018-08-22T01:12:33.311Z,57.42
2018-08-22T01:15:01.659Z,57.80
2018-08-22T01:17:29.974Z,58.97
2018-08-22T01:19:58.313Z,57.37
2018-08-22T01:22:26.660Z,59.10
2018-08-22T01:24:55.045Z,58.37
2018-08-22T01:27:23.965Z,57.07
2018-08-22T01:29:54.407Z,57.17
2018-08-22T01:32:23.181Z,57.69
2018-08-22T01:34:52.895Z,58.58
2018-08-22T01:37:21.207Z,58.35
2018-08-22T01:39:49.648Z,58.53
2018-08-22T01:42:18.639Z,57.71
2018-08-22T01:44:47.329Z,58.22
2018-08-22T01:47:16.011Z,57.72
2018-08-22T01:49:44.361Z,58.38
2018-08-22T01:52:12.697Z,57.92
2018-08-22T01:54:41.047Z,58.62
2018-08-22T01:57:09.396Z,58.27
2018-08-22T01:59:37.735Z,58.38
2018-08-22T02:02:06.079Z,58.01
2018-08-22T02:04:34.431Z,59.51
2018-08-22T02:07:02.776Z,58.35
2018-08-22T02:09:31.116Z,58.26
2018-08-22T02:11:59.466Z,58.58
2018-08-22T02:14:27.801Z,59.01
2018-08-22T02:16:56.163Z,58.43
2018-08-22T02:19:24.532Z,59.06
2018-08-22T02:21:52.856Z,59.82
2018-08-22T02:24:21.232Z,59.68
2018-08-22T02:26:49.557Z,59.08
2018-08-22T02:29:17.874Z,59.75
2018-08-22T02:31:46.257Z,59.21
2018-08-22T02:34:14.619Z,60.70
2018-08-22T02:36:42.981Z,59.86
2018-08-22T02:39:11.331Z,59.70
2018-08-22T02:41:39.681Z,61.21
2018-08-22T02:44:08.033Z,60.95
2018-08-22T02:46:36.412Z,59.82
2018-08-22T02:49:04.749Z,60.84
2018-08-22T02:51:33.124Z,60.57
2018-08-22T02:54:01.462Z,62.61
2018-08-22T02:56:29.808Z,60.36
2018-08-22T02:58:58.149Z,62.67
2018-08-22T03:01:26.491Z,60.33
2018-08-22T03:03:54.804Z,60.89
2018-08-22T03:06:23.148Z,61.24
2018-08-22T03:08:51.461Z,61.62
2018-08-22T03:11:20.095Z,61.89
2018-08-22T03:13:48.458Z,62.59
2018-08-22T03:16:16.790Z,60.74
2018-08-22T03:18:45.134Z,62.21
2018-08-22T03:21:14.018Z,62.61
2018-08-22T03:23:42.377Z,61.68
2018-08-22T03:26:10.738Z,63.49
2018-08-22T03:28:39.411Z,63.48
2018-08-22T03:31:07.745Z,64.08
2018-08-22T03:33:36.123Z,62.03
2018-08-22T03:36:04.466Z,62.37
2018-08-22T03:38:33.458Z,63.75
2018-08-22T03:41:02.148Z,61.97
2018-08-22T03:43:30.476Z,63.96
2018-08-22T03:45:58.814Z,64.59
2018-08-22T03:48:27.148Z,62.43
2018-08-22T03:50:55.483Z,61.92
2018-08-22T03:53:23.817Z,62.45
2018-08-22T03:55:52.146Z,62.79
2018-08-22T03:58:20.476Z,62.53
2018-08-22T04:00:48.808Z,63.63
2018-08-22T04:03:17.282Z,64.16
2018-08-22T04:05:45.599Z,63.46
2018-08-22T04:08:13.971Z,63.23
2018-08-22T04:10:44.553Z,62.98
2018-08-22T04:13:12.957Z,64.96
2018-08-22T04:15:41.807Z,63.10
2018-08-22T04:18:10.121Z,63.14
2018-08-22T04:20:38.435Z,63.38
2018-08-22T04:23:06.768Z,63.63
2018-08-22T04:25:35.155Z,64.51
2018-08-22T04:28:03.484Z,64.89
2018-08-22T04:30:31.787Z,64.62
2018-08-22T04:33:00.109Z,64.92
2018-08-22T04:35:28.442Z,64.59
2018-08-22T04:37:56.753Z,66.28
2018-08-22T04:40:25.100Z,64.54
2018-08-22T04:42:53.481Z,64.62
2018-08-22T04:45:21.889Z,67.00
2018-08-22T04:47:50.234Z,67.32
2018-08-22T04:50:18.591Z,65.86
2018-08-22T04:52:46.914Z,66.62
2018-08-22T04:55:15.246Z,64.90
2018-08-22T04:57:43.571Z,65.81
2018-08-22T05:00:11.884Z,66.81
2018-08-22T05:02:40.430Z,65.90
2018-08-22T05:05:08.911Z,65.49
2018-08-22T05:07:37.268Z,66.84
2018-08-22T05:10:06.128Z,67.01
2018-08-22T05:12:34.467Z,65.87
2018-08-22T05:15:02.782Z,66.02
2018-08-22T05:17:31.115Z,65.43
2018-08-22T05:19:59.447Z,65.47
2018-08-22T05:22:27.767Z,65.75
2018-08-22T05:24:56.123Z,65.10
2018-08-22T05:27:24.460Z,65.16
2018-08-22T05:29:52.779Z,65.21
2018-08-22T05:32:21.181Z,64.61
2018-08-22T05:34:49.605Z,65.61
2018-08-22T05:37:17.951Z,65.90
2018-08-22T05:39:46.337Z,65.14
2018-08-22T05:42:14.679Z,65.27
2018-08-22T05:44:43.026Z,64.82
2018-08-22T05:47:11.378Z,64.75
2018-08-22T05:49:39.788Z,64.87
2018-08-22T05:52:08.197Z,63.96
2018-08-22T05:54:36.570Z,64.75
2018-08-22T05:57:04.912Z,64.25
2018-08-22T05:59:33.267Z,64.58
2018-08-22T06:02:01.647Z,63.96
2018-08-22T06:04:29.986Z,63.72
2018-08-22T06:06:58.331Z,63.33
2018-08-22T06:09:26.727Z,63.36
2018-08-22T06:11:55.067Z,62.77
2018-08-22T06:14:23.427Z,63.23
2018-08-22T06:16:51.781Z,62.79
2018-08-22T06:19:20.129Z,62.03
2018-08-22T06:21:48.474Z,62.01
2018-08-22T06:24:16.825Z,62.18
2018-08-22T06:26:45.190Z,61.38
2018-08-22T06:29:13.514Z,60.06
2018-08-22T06:31:41.893Z,59.99
2018-08-22T06:34:10.243Z,60.41
2018-08-22T06:36:38.590Z,58.97
2018-08-22T06:39:09.156Z,58.94
2018-08-22T06:41:37.646Z,58.62
2018-08-22T06:44:05.985Z,58.53
2018-08-22T06:46:34.348Z,57.41
2018-08-22T06:49:02.693Z,57.38
2018-08-22T06:51:31.072Z,57.39
2018-08-22T06:53:59.385Z,57.66
2018-08-22T06:56:27.715Z,55.01
2018-08-22T06:58:56.018Z,57.32
2018-08-22T07:01:24.348Z,56.77
2018-08-22T07:03:52.665Z,55.54
2018-08-22T07:06:21.009Z,55.70
2018-08-22T07:08:49.344Z,55.08
2018-08-22T07:11:17.695Z,55.10
2018-08-22T07:13:46.064Z,51.49
2018-08-22T07:16:14.520Z,50.95
2018-08-22T07:18:42.888Z,53.64
2018-08-22T07:21:11.225Z,52.97
2018-08-22T07:23:39.565Z,47.01
2018-08-22T07:26:07.929Z,51.63
2018-08-22T07:28:36.284Z,51.52
2018-08-22T07:31:05.012Z,50.54
2018-08-22T07:33:33.379Z,51.14
2018-08-22T07:36:02.588Z,49.83
2018-08-22T07:38:30.930Z,49.70
2018-08-22T07:40:59.370Z,49.32
2018-08-22T07:43:27.716Z,48.74
2018-08-22T07:45:56.502Z,49.71
2018-08-22T07:48:24.902Z,49.68
2018-08-22T07:50:53.225Z,49.33
2018-08-22T07:53:21.577Z,47.26
2018-08-22T07:55:50.805Z,47.26
2018-08-22T07:58:19.184Z,44.92
2018-08-22T08:00:47.564Z,47.04
2018-08-22T08:03:15.921Z,46.08
2018-08-22T08:05:44.319Z,44.66
2018-08-22T08:08:12.715Z,43.89
2018-08-22T08:10:41.088Z,44.42
2018-08-22T08:13:13.859Z,43.58
2018-08-22T08:15:42.680Z,40.27
2018-08-22T08:18:11.060Z,42.08
2018-08-22T08:20:39.449Z,40.80
2018-08-22T08:23:08.369Z,33.76
2018-08-22T08:25:36.782Z,33.12
2018-08-22T08:28:05.607Z,38.92
2018-08-22T08:30:34.032Z,37.70
2018-08-22T08:33:02.702Z,33.36
2018-08-22T08:35:31.220Z,31.91
2018-08-22T08:37:59.570Z,36.24
2018-08-22T08:40:28.912Z,35.19
2018-08-22T08:42:58.200Z,27.98
2018-08-22T08:45:26.593Z,32.24
2018-08-22T08:47:55.336Z,32.25
2018-08-22T08:50:24.393Z,30.53
2018-08-22T08:52:52.844Z,29.72
2018-08-22T08:55:21.328Z,28.95
2018-08-22T08:57:49.740Z,30.52
2018-08-22T09:00:18.073Z,28.31
2018-08-22T09:02:47.427Z,28.56
2018-08-22T09:05:15.803Z,29.25
2018-08-22T09:07:44.133Z,28.28
2018-08-22T09:10:12.462Z,27.23
2018-08-22T09:12:40.800Z,27.48
2018-08-22T09:15:09.170Z,24.39
2018-08-22T09:17:37.564Z,26.65
2018-08-22T09:20:07.369Z,25.69
2018-08-22T09:22:35.767Z,28.43
2018-08-22T09:25:04.118Z,25.08
2018-08-22T09:27:32.498Z,25.03
2018-08-22T09:30:00.838Z,24.73
2018-08-22T09:32:29.240Z,26.12
2018-08-22T09:34:57.679Z,25.96
2018-08-22T09:37:26.011Z,23.91
2018-08-22T09:39:54.366Z,24.97
2018-08-22T09:42:22.730Z,23.59
2018-08-22T09:44:51.082Z,25.40
2018-08-22T09:47:19.396Z,26.75
2018-08-22T09:49:47.791Z,25.56
2018-08-22T09:52:16.083Z,24.81
2018-08-22T09:54:56.545Z,25.12
2018-08-22T09:57:26.107Z,22.93
2018-08-22T09:59:54.437Z,25.23
2018-08-22T10:02:22.986Z,22.89
2018-08-22T10:04:51.685Z,23.14
2018-08-22T10:07:20.037Z,22.95
2018-08-22T10:09:48.486Z,23.80
2018-08-22T10:12:16.851Z,22.99
2018-08-22T10:14:45.247Z,23.58
2018-08-22T10:17:13.632Z,23.41
2018-08-22T10:19:42.183Z,21.94
2018-08-22T10:22:10.533Z,22.79
2018-08-22T10:24:38.884Z,23.22
2018-08-22T10:27:07.236Z,22.64
2018-08-22T10:29:35.577Z,23.44
2018-08-22T10:32:03.919Z,23.92
2018-08-22T10:34:32.256Z,22.15
2018-08-22T10:37:00.580Z,22.72
2018-08-22T10:39:28.953Z,22.37
2018-08-22T10:41:57.261Z,22.18
2018-08-22T10:44:25.653Z,21.58
2018-08-22T10:46:54.449Z,22.82
2018-08-22T10:49:22.792Z,22.27
2018-08-22T10:51:51.160Z,23.81
2018-08-22T10:54:19.489Z,22.43
2018-08-22T10:56:47.839Z,23.27
2018-08-22T10:59:16.730Z,23.98
2018-08-22T11:01:45.085Z,23.86
2018-08-22T11:04:13.427Z,24.21
2018-08-22T11:06:41.790Z,24.61
2018-08-22T11:09:11.180Z,24.58
2018-08-22T11:11:39.526Z,24.66
2018-08-22T11:14:08.234Z,27.00
2018-08-22T11:16:37.561Z,26.05
2018-08-22T11:19:06.416Z,27.57
2018-08-22T11:21:46.047Z,29.90
2018-08-22T11:24:25.836Z,29.31
2018-08-22T11:27:05.436Z,30.10
2018-08-22T11:29:45.241Z,29.07
2018-08-22T11:32:25.029Z,28.40
2018-08-22T11:34:53.464Z,30.21
2018-08-22T11:37:21.858Z,31.04
2018-08-22T11:39:51.204Z,29.73
2018-08-22T11:42:20.005Z,32.44
2018-08-22T11:44:48.358Z,30.58
2018-08-22T11:47:16.683Z,30.84
2018-08-22T11:49:45.045Z,32.89
2018-08-22T11:52:13.389Z,32.96
2018-08-22T11:54:41.727Z,32.22
2018-08-22T11:57:10.176Z,32.04
2018-08-22T11:59:39.016Z,31.22
2018-08-22T12:02:07.367Z,31.32
2018-08-22T12:04:35.807Z,31.73
2018-08-22T12:07:04.146Z,32.19
2018-08-22T12:09:32.464Z,33.28
2018-08-22T12:12:00.820Z,32.52
2018-08-22T12:14:29.154Z,33.21
2018-08-22T12:16:57.495Z,32.57
2018-08-22T12:19:25.841Z,32.75
2018-08-22T12:21:54.171Z,33.08
2018-08-22T12:24:22.494Z,32.97
2018-08-22T12:26:50.829Z,33.43
2018-08-22T12:29:19.152Z,34.18
2018-08-22T12:31:47.488Z,34.50
2018-08-22T12:34:15.940Z,34.58
2018-08-22T12:36:44.292Z,36.95
2018-08-22T12:39:12.631Z,36.44
2018-08-22T12:41:40.981Z,34.33
2018-08-22T12:44:09.327Z,34.72
2018-08-22T12:46:37.688Z,34.82
2018-08-22T12:49:06.041Z,35.04
2018-08-22T12:51:34.415Z,35.46
2018-08-22T12:54:02.780Z,35.23
2018-08-22T12:56:31.171Z,36.16
2018-08-22T12:58:59.537Z,35.58
2018-08-22T13:01:27.860Z,35.91
2018-08-22T13:03:56.223Z,35.14
2018-08-22T13:06:24.538Z,35.24
2018-08-22T13:08:52.929Z,35.71
2018-08-22T13:11:21.285Z,35.77
2018-08-22T13:13:49.647Z,35.98
2018-08-22T13:16:18.018Z,36.78
2018-08-22T13:18:46.344Z,36.36
2018-08-22T13:21:14.875Z,36.42
2018-08-22T13:23:43.309Z,36.23
2018-08-22T13:26:11.634Z,36.29
2018-08-22T13:28:39.998Z,36.41
2018-08-22T13:31:08.343Z,36.35
2018-08-22T13:33:36.712Z,36.51
2018-08-22T13:36:05.115Z,36.86
2018-08-22T13:38:33.468Z,36.94
2018-08-22T13:41:01.804Z,36.25
2018-08-22T13:43:30.140Z,35.78
2018-08-22T13:45:58.577Z,36.36
2018-08-22T13:48:27.015Z,36.04
2018-08-22T13:50:55.437Z,35.79
2018-08-22T13:53:23.712Z,36.33
2018-08-22T13:55:52.127Z,36.91
2018-08-22T13:58:20.485Z,38.04
2018-08-22T14:00:48.836Z,37.50
2018-08-22T14:03:17.174Z,37.56
2018-08-22T14:05:45.543Z,37.27
2018-08-22T14:08:13.916Z,37.66
2018-08-22T14:10:42.258Z,37.71
2018-08-22T14:13:10.644Z,37.91
2018-08-22T14:15:39.011Z,37.05
2018-08-22T14:18:07.463Z,36.77
2018-08-22T14:20:35.893Z,37.54
2018-08-22T14:23:04.260Z,38.39
2018-08-22T14:25:32.595Z,37.95
2018-08-22T14:28:00.948Z,38.59
2018-08-22T14:30:29.285Z,38.64
2018-08-22T14:32:57.690Z,37.92
2018-08-22T14:35:26.049Z,38.43
2018-08-22T14:37:54.389Z,38.31
2018-08-22T14:40:22.735Z,37.77
2018-08-22T14:42:51.149Z,37.67
2018-08-22T14:45:20.848Z,37.28
2018-08-22T14:47:49.284Z,37.14
2018-08-22T14:50:17.659Z,37.37
2018-08-22T14:52:46.031Z,37.41
2018-08-22T14:55:14.366Z,37.96
2018-08-22T14:57:43.013Z,37.12
2018-08-22T15:00:11.373Z,37.50
2018-08-22T15:02:40.110Z,38.12
2018-08-22T15:05:09.368Z,37.04
2018-08-22T15:07:38.374Z,37.81
2018-08-22T15:10:06.834Z,37.39
2018-08-22T15:12:35.174Z,37.72
2018-08-22T15:15:03.531Z,38.14
2018-08-22T15:17:31.868Z,37.95
2018-08-22T15:20:00.236Z,37.90
2018-08-22T15:22:28.582Z,37.66
2018-08-22T15:24:57.028Z,37.67
2018-08-22T15:27:25.405Z,38.75
2018-08-22T15:29:53.769Z,38.11
2018-08-22T15:32:22.347Z,38.47
2018-08-22T15:34:57.727Z,37.83
2018-08-22T15:37:26.623Z,37.89
2018-08-22T15:39:54.968Z,37.92
2018-08-22T15:42:23.343Z,38.28
2018-08-22T15:44:51.744Z,38.02
2018-08-22T15:47:20.268Z,37.44
2018-08-22T15:49:48.566Z,38.09
2018-08-22T15:52:16.993Z,38.84
2018-08-22T15:55:01.309Z,38.85
2018-08-22T15:57:40.542Z,38.77
2018-08-22T16:00:08.943Z,38.33
2018-08-22T16:02:37.299Z,38.53
2018-08-22T16:05:06.562Z,38.31
2018-08-22T16:07:35.821Z,38.92
2018-08-22T16:10:05.031Z,38.25
2018-08-22T16:12:33.878Z,38.37
2018-08-22T16:15:02.288Z,38.68
2018-08-22T16:17:31.017Z,38.42
2018-08-22T16:19:59.382Z,39.31
2018-08-22T16:22:28.028Z,39.02
2018-08-22T16:24:57.175Z,39.69
2018-08-22T16:27:26.267Z,39.43
2018-08-22T16:29:54.780Z,39.98
2018-08-22T16:32:23.235Z,39.61
2018-08-22T16:34:51.617Z,39.34
2018-08-22T16:37:20.053Z,40.19
2018-08-22T16:39:49.058Z,40.18
2018-08-22T16:42:23.806Z,40.08
2018-08-22T16:44:52.128Z,39.89
2018-08-22T16:47:24.677Z,40.44
2018-08-22T16:49:53.031Z,40.29
2018-08-22T16:52:21.390Z,40.20
2018-08-22T16:54:59.111Z,40.87
2018-08-22T16:57:28.065Z,40.44
2018-08-22T16:59:56.413Z,40.22
2018-08-22T17:02:24.783Z,39.74
2018-08-22T17:04:53.136Z,39.88
2018-08-22T17:07:21.612Z,40.69
2018-08-22T17:09:50.572Z,40.12
2018-08-22T17:12:18.952Z,39.85
2018-08-22T17:14:47.419Z,40.04
2018-08-22T17:17:15.837Z,39.92
2018-08-22T17:19:44.175Z,40.26
2018-08-22T17:22:13.006Z,40.91
2018-08-22T17:24:41.393Z,40.37
2018-08-22T17:27:09.778Z,40.63
2018-08-22T17:29:38.162Z,40.19
2018-08-22T17:32:06.877Z,40.84
2018-08-22T17:34:35.383Z,41.15
2018-08-22T17:37:08.284Z,41.17
2018-08-22T17:39:36.636Z,41.51
2018-08-22T17:42:05.012Z,41.56
2018-08-22T17:44:33.353Z,41.55
2018-08-22T17:47:01.740Z,41.39
2018-08-22T17:49:30.099Z,41.98
2018-08-22T17:52:00.183Z,42.28
2018-08-22T17:54:28.681Z,43.01
2018-08-22T17:57:10.664Z,43.41
2018-08-22T17:59:39.541Z,42.77
2018-08-22T18:02:07.880Z,43.06
2018-08-22T18:04:59.910Z,43.42
2018-08-22T18:07:28.307Z,43.33
2018-08-22T18:09:56.684Z,43.56
2018-08-22T18:12:26.272Z,44.01
2018-08-22T18:14:57.568Z,44.18
2018-08-22T18:17:25.915Z,44.33
2018-08-22T18:19:54.249Z,44.38
2018-08-22T18:22:22.629Z,44.82
2018-08-22T18:24:56.407Z,44.17
2018-08-22T18:27:25.051Z,44.28
2018-08-22T18:29:53.405Z,44.53
2018-08-22T18:32:21.822Z,45.24
2018-08-22T18:35:01.635Z,45.58
2018-08-22T18:37:30.870Z,45.69
2018-08-22T18:40:08.510Z,45.79
2018-08-22T18:42:36.887Z,46.02
2018-08-22T18:45:05.983Z,45.79
2018-08-22T18:47:35.298Z,46.05
2018-08-22T18:50:03.980Z,46.86
2018-08-22T18:52:32.564Z,46.27
2018-08-22T18:55:01.676Z,46.33
2018-08-22T18:57:30.071Z,46.65
2018-08-22T18:59:58.472Z,47.04
2018-08-22T19:02:27.206Z,46.67
2018-08-22T19:05:01.429Z,47.03
2018-08-22T19:07:30.557Z,46.90
2018-08-22T19:09:58.970Z,47.69
2018-08-22T19:12:27.632Z,47.42
2018-08-22T19:14:55.962Z,48.31
2018-08-22T19:17:24.378Z,48.22
2018-08-22T19:19:52.723Z,48.11
2018-08-22T19:22:21.070Z,48.23
2018-08-22T19:25:03.683Z,48.21
2018-08-22T19:27:33.222Z,48.15
2018-08-22T19:30:01.923Z,47.86
2018-08-22T19:32:30.260Z,48.20
2018-08-22T19:34:58.638Z,49.07
2018-08-22T19:37:27.964Z,49.18
2018-08-22T19:40:02.692Z,48.81
2018-08-22T19:42:32.432Z,48.84
2018-08-22T19:45:00.990Z,49.41
2018-08-22T19:47:29.410Z,49.63
2018-08-22T19:49:58.963Z,49.86
2018-08-22T19:52:27.352Z,49.95
2018-08-22T19:54:55.886Z,49.29
2018-08-22T19:57:29.765Z,50.14
2018-08-22T19:59:58.345Z,50.26
2018-08-22T20:02:27.154Z,49.65
2018-08-22T20:04:56.756Z,50.31
2018-08-22T20:07:26.269Z,50.06
2018-08-22T20:09:56.040Z,49.75
2018-08-22T20:12:36.269Z,49.81
2018-08-22T20:15:06.026Z,50.11
2018-08-22T20:17:34.420Z,51.16
2018-08-22T20:20:03.062Z,50.71
2018-08-22T20:22:37.492Z,50.28
2018-08-22T20:25:06.975Z,53.74
2018-08-22T20:27:35.310Z,53.13
2018-08-22T20:30:11.962Z,52.79
2018-08-22T20:32:53.054Z,52.89
2018-08-22T20:35:26.807Z,52.50
2018-08-22T20:37:55.482Z,52.77
2018-08-22T20:40:23.841Z,52.60
2018-08-22T20:42:52.286Z,52.34
2018-08-22T20:45:25.900Z,52.76
2018-08-22T20:48:10.231Z,52.23
2018-08-22T20:50:40.043Z,52.74
2018-08-22T20:53:09.757Z,53.03
2018-08-22T20:55:38.171Z,53.35
2018-08-22T20:58:06.520Z,53.61
2018-08-22T21:00:35.848Z,53.37
2018-08-22T21:03:04.336Z,53.56
2018-08-22T21:05:32.776Z,53.27
2018-08-22T21:08:01.129Z,54.16
2018-08-22T21:10:29.493Z,54.72
2018-08-22T21:12:58.014Z,54.15
2018-08-22T21:15:26.371Z,53.83
2018-08-22T21:17:54.746Z,54.61
2018-08-22T21:20:24.901Z,53.92
2018-08-22T21:22:54.309Z,53.82
2018-08-22T21:25:22.697Z,54.98
2018-08-22T21:27:51.672Z,54.56
2018-08-22T21:30:20.039Z,54.21
2018-08-22T21:32:49.962Z,54.47
2018-08-22T21:35:26.171Z,54.05
2018-08-22T21:37:58.090Z,54.15
2018-08-22T21:40:26.442Z,55.24
2018-08-22T21:42:54.792Z,54.47
2018-08-22T21:45:23.202Z,54.82
2018-08-22T21:48:04.961Z,55.07
2018-08-22T21:50:33.343Z,55.51
2018-08-22T21:53:02.846Z,54.99
2018-08-22T21:55:37.341Z,55.30
2018-08-22T21:59:30.187Z,55.10
2018-08-22T22:02:04.015Z,54.80
2018-08-22T22:04:37.494Z,55.47
2018-08-22T22:07:06.796Z,55.44
2018-08-22T22:09:35.789Z,55.17
2018-08-22T22:12:04.675Z,55.96
2018-08-22T22:14:35.084Z,55.31
2018-08-22T22:17:04.193Z,55.19
2018-08-22T22:19:33.836Z,55.22
2018-08-22T22:22:03.004Z,55.75
2018-08-22T22:24:31.326Z,55.76
2018-08-22T22:27:00.067Z,55.85
2018-08-22T22:29:32.593Z,55.82
2018-08-22T22:32:00.938Z,55.95
2018-08-22T22:34:29.379Z,55.79
2018-08-22T22:36:57.727Z,55.55
2018-08-22T22:39:36.541Z,55.75
2018-08-22T22:42:12.574Z,55.86
2018-08-22T22:44:43.374Z,56.55
2018-08-22T22:47:16.897Z,55.97
2018-08-22T22:49:45.254Z,56.09
2018-08-22T22:52:24.727Z,56.75
2018-08-22T22:54:54.942Z,56.66
2018-08-22T22:57:23.729Z,56.49
2018-08-22T22:59:52.512Z,56.54
2018-08-22T23:02:23.615Z,56.08
2018-08-22T23:04:52.787Z,55.94
2018-08-22T23:07:24.836Z,56.70
2018-08-22T23:09:55.451Z,56.69
2018-08-22T23:12:40.716Z,56.68
2018-08-22T23:15:11.374Z,56.64
2018-08-22T23:17:40.144Z,56.38
2018-08-22T23:20:18.899Z,57.58
2018-08-22T23:22:47.254Z,57.69
2018-08-22T23:25:15.612Z,57.27
2018-08-22T23:27:43.939Z,56.70
2018-08-22T23:30:15.500Z,56.63
2018-08-22T23:32:44.185Z,57.02
2018-08-22T23:35:20.815Z,57.37
2018-08-22T23:38:55.362Z,57.60
2018-08-22T23:41:23.691Z,57.02
2018-08-22T23:43:52.818Z,57.11
2018-08-22T23:46:21.152Z,58.20
2018-08-22T23:48:56.649Z,57.69
2018-08-22T23:51:24.975Z,58.57
2018-08-22T23:53:57.016Z,58.27
2018-08-22T23:56:27.393Z,57.68
2018-08-22T23:58:56.319Z,57.85
